sensor_id;sensor_type;location;lat;lon;timestamp;pressure;altitude;pressure_sealevel;temperature;humidity
19676;BME280;39539;52.202;9.876;2023-04-20T00:00:04;101329.94;;;4.71;100.00
19676;BME280;39539;52.202;9.876;2023-04-20T00:02:38;101330.06;;;4.69;100.00
19676;BME280;39539;52.202;9.876;2023-04-20T00:05:05;101324.91;;;4.60;100.00
19676;BME280;39539;52.202;9.876;2023-04-20T00:07:31;101312.28;;;4.45;100.00
19676;BME280;39539;52.202;9.876;2023-04-20T00:09:57;101313.00;;;4.56;100.00
19676;BME280;39539;52.202;9.876;2023-04-20T00:12:22;101309.03;;;4.52;100.00
19676;BME280;39539;52.202;9.876;2023-04-20T00:14:48;101309.88;;;4.70;100.00
19676;BME280;39539;52.202;9.876;2023-04-20T00:17:13;101302.41;;;4.65;100.00
19676;BME280;39539;52.202;9.876;2023-04-20T00:19:38;101288.13;;;4.50;100.00
19676;BME280;39539;52.202;9.876;2023-04-20T00:22:04;101275.81;;;4.50;100.00
19676;BME280;39539;52.202;9.876;2023-04-20T00:24:30;101289.47;;;4.54;100.00
19676;BME280;39539;52.202;9.876;2023-04-20T00:26:55;101288.72;;;4.62;100.00
19676;BME280;39539;52.202;9.876;2023-04-20T00:29:21;101287.75;;;4.63;100.00
19676;BME280;39539;52.202;9.876;2023-04-20T00:31:46;101275.25;;;4.65;100.00
19676;BME280;39539;52.202;9.876;2023-04-20T00:34:11;101276.84;;;4.58;100.00
19676;BME280;39539;52.202;9.876;2023-04-20T00:36:37;101286.41;;;4.59;100.00
19676;BME280;39539;52.202;9.876;2023-04-20T00:39:02;101274.88;;;4.60;100.00
19676;BME280;39539;52.202;9.876;2023-04-20T00:41:29;101271.44;;;4.59;100.00
19676;BME280;39539;52.202;9.876;2023-04-20T00:43:54;101258.66;;;4.46;100.00
19676;BME280;39539;52.202;9.876;2023-04-20T00:46:20;101282.34;;;4.64;100.00
19676;BME280;39539;52.202;9.876;2023-04-20T00:48:49;101276.91;;;4.66;100.00
19676;BME280;39539;52.202;9.876;2023-04-20T00:51:16;101275.31;;;4.73;100.00
19676;BME280;39539;52.202;9.876;2023-04-20T00:53:44;101267.50;;;4.89;100.00
19676;BME280;39539;52.202;9.876;2023-04-20T00:56:14;101270.63;;;4.85;100.00
19676;BME280;39539;52.202;9.876;2023-04-20T00:58:43;101274.66;;;4.71;100.00
19676;BME280;39539;52.202;9.876;2023-04-20T01:01:10;101272.31;;;4.68;100.00
19676;BME280;39539;52.202;9.876;2023-04-20T01:03:38;101273.28;;;4.67;100.00
19676;BME280;39539;52.202;9.876;2023-04-20T01:06:03;101245.94;;;4.60;100.00
19676;BME280;39539;52.202;9.876;2023-04-20T01:08:29;101257.47;;;4.67;100.00
19676;BME280;39539;52.202;9.876;2023-04-20T01:10:56;101257.19;;;4.70;100.00
19676;BME280;39539;52.202;9.876;2023-04-20T01:13:22;101233.44;;;4.62;100.00
19676;BME280;39539;52.202;9.876;2023-04-20T01:15:47;101229.44;;;4.58;100.00
19676;BME280;39539;52.202;9.876;2023-04-20T01:18:13;101230.06;;;4.52;100.00
19676;BME280;39539;52.202;9.876;2023-04-20T01:20:39;101231.84;;;4.69;100.00
19676;BME280;39539;52.202;9.876;2023-04-20T01:23:05;101233.84;;;4.75;100.00
19676;BME280;39539;52.202;9.876;2023-04-20T01:25:30;101228.75;;;4.56;100.00
19676;BME280;39539;52.202;9.876;2023-04-20T01:27:55;101230.13;;;4.60;100.00
19676;BME280;39539;52.202;9.876;2023-04-20T01:30:21;101212.88;;;4.65;100.00
19676;BME280;39539;52.202;9.876;2023-04-20T01:32:46;101221.56;;;4.58;100.00
19676;BME280;39539;52.202;9.876;2023-04-20T01:35:12;101223.72;;;4.62;100.00
19676;BME280;39539;52.202;9.876;2023-04-20T01:37:39;101222.38;;;4.58;100.00
19676;BME280;39539;52.202;9.876;2023-04-20T01:40:07;101222.28;;;4.68;100.00
19676;BME280;39539;52.202;9.876;2023-04-20T01:42:33;101215.09;;;4.78;100.00
19676;BME280;39539;52.202;9.876;2023-04-20T01:44:58;101210.50;;;4.80;100.00
19676;BME280;39539;52.202;9.876;2023-04-20T01:47:24;101206.19;;;4.71;100.00
19676;BME280;39539;52.202;9.876;2023-04-20T01:49:49;101187.38;;;4.66;100.00
19676;BME280;39539;52.202;9.876;2023-04-20T01:52:14;101201.34;;;4.84;100.00
19676;BME280;39539;52.202;9.876;2023-04-20T01:54:40;101209.25;;;4.92;100.00
19676;BME280;39539;52.202;9.876;2023-04-20T01:57:05;101182.91;;;4.84;100.00
19676;BME280;39539;52.202;9.876;2023-04-20T01:59:32;101201.94;;;4.78;100.00
19676;BME280;39539;52.202;9.876;2023-04-20T02:01:57;101177.22;;;4.71;100.00
19676;BME280;39539;52.202;9.876;2023-04-20T02:04:23;101195.38;;;4.82;100.00
19676;BME280;39539;52.202;9.876;2023-04-20T02:06:48;101200.56;;;4.66;100.00
19676;BME280;39539;52.202;9.876;2023-04-20T02:09:14;101197.19;;;4.82;100.00
19676;BME280;39539;52.202;9.876;2023-04-20T02:11:39;101182.84;;;4.76;100.00
19676;BME280;39539;52.202;9.876;2023-04-20T02:14:05;101194.34;;;4.75;100.00
19676;BME280;39539;52.202;9.876;2023-04-20T02:16:30;101205.56;;;4.77;100.00
19676;BME280;39539;52.202;9.876;2023-04-20T02:18:56;101189.94;;;4.84;100.00
19676;BME280;39539;52.202;9.876;2023-04-20T02:21:21;101181.22;;;4.83;100.00
19676;BME280;39539;52.202;9.876;2023-04-20T02:23:47;101194.41;;;4.83;100.00
19676;BME280;39539;52.202;9.876;2023-04-20T02:26:12;101194.25;;;4.85;100.00
19676;BME280;39539;52.202;9.876;2023-04-20T02:28:39;101185.22;;;4.87;100.00
19676;BME280;39539;52.202;9.876;2023-04-20T02:31:04;101157.69;;;4.56;100.00
19676;BME280;39539;52.202;9.876;2023-04-20T02:33:30;101181.66;;;4.70;100.00
19676;BME280;39539;52.202;9.876;2023-04-20T02:35:55;101179.53;;;4.74;100.00
19676;BME280;39539;52.202;9.876;2023-04-20T02:38:20;101170.44;;;4.68;100.00
19676;BME280;39539;52.202;9.876;2023-04-20T02:40:46;101151.50;;;4.65;100.00
19676;BME280;39539;52.202;9.876;2023-04-20T02:43:11;101179.91;;;4.79;100.00
19676;BME280;39539;52.202;9.876;2023-04-20T02:45:36;101160.75;;;4.69;100.00
19676;BME280;39539;52.202;9.876;2023-04-20T02:48:02;101159.72;;;4.62;100.00
19676;BME280;39539;52.202;9.876;2023-04-20T02:50:27;101166.81;;;4.69;100.00
19676;BME280;39539;52.202;9.876;2023-04-20T02:52:52;101181.53;;;4.80;100.00
19676;BME280;39539;52.202;9.876;2023-04-20T02:55:18;101177.72;;;4.75;100.00
19676;BME280;39539;52.202;9.876;2023-04-20T02:57:43;101172.09;;;4.69;100.00
19676;BME280;39539;52.202;9.876;2023-04-20T03:00:09;101147.34;;;4.54;100.00
19676;BME280;39539;52.202;9.876;2023-04-20T03:02:37;101168.00;;;4.75;100.00
19676;BME280;39539;52.202;9.876;2023-04-20T03:05:03;101176.22;;;4.72;100.00
19676;BME280;39539;52.202;9.876;2023-04-20T03:07:29;101179.94;;;4.87;100.00
19676;BME280;39539;52.202;9.876;2023-04-20T03:09:55;101183.84;;;4.83;100.00
19676;BME280;39539;52.202;9.876;2023-04-20T03:12:21;101161.94;;;4.75;100.00
19676;BME280;39539;52.202;9.876;2023-04-20T03:14:46;101158.88;;;4.61;100.00
19676;BME280;39539;52.202;9.876;2023-04-20T03:17:13;101183.47;;;4.70;100.00
19676;BME280;39539;52.202;9.876;2023-04-20T03:19:38;101161.06;;;4.66;100.00
19676;BME280;39539;52.202;9.876;2023-04-20T03:22:04;101162.81;;;4.57;100.00
19676;BME280;39539;52.202;9.876;2023-04-20T03:24:29;101165.97;;;4.61;100.00
19676;BME280;39539;52.202;9.876;2023-04-20T03:26:55;101180.97;;;4.68;100.00
19676;BME280;39539;52.202;9.876;2023-04-20T03:29:21;101177.66;;;4.66;100.00
19676;BME280;39539;52.202;9.876;2023-04-20T03:31:46;101179.41;;;4.84;100.00
19676;BME280;39539;52.202;9.876;2023-04-20T03:34:11;101162.09;;;4.73;100.00
19676;BME280;39539;52.202;9.876;2023-04-20T03:36:37;101182.47;;;4.71;100.00
19676;BME280;39539;52.202;9.876;2023-04-20T03:39:03;101176.53;;;4.69;100.00
19676;BME280;39539;52.202;9.876;2023-04-20T03:41:29;101172.97;;;4.78;100.00
19676;BME280;39539;52.202;9.876;2023-04-20T03:43:55;101158.88;;;4.61;100.00
19676;BME280;39539;52.202;9.876;2023-04-20T03:46:21;101164.00;;;4.63;100.00
19676;BME280;39539;52.202;9.876;2023-04-20T03:48:47;101168.69;;;4.77;100.00
19676;BME280;39539;52.202;9.876;2023-04-20T03:51:12;101172.63;;;4.73;100.00
19676;BME280;39539;52.202;9.876;2023-04-20T03:53:38;101165.19;;;4.68;100.00
19676;BME280;39539;52.202;9.876;2023-04-20T03:56:03;101174.94;;;4.76;100.00
19676;BME280;39539;52.202;9.876;2023-04-20T03:58:29;101174.78;;;4.78;100.00
19676;BME280;39539;52.202;9.876;2023-04-20T04:01:04;101183.66;;;4.77;100.00
19676;BME280;39539;52.202;9.876;2023-04-20T04:03:34;101182.03;;;4.76;100.00
19676;BME280;39539;52.202;9.876;2023-04-20T04:05:59;101183.22;;;4.81;100.00
19676;BME280;39539;52.202;9.876;2023-04-20T04:08:25;101174.63;;;4.79;100.00
19676;BME280;39539;52.202;9.876;2023-04-20T04:10:50;101188.94;;;4.77;100.00
19676;BME280;39539;52.202;9.876;2023-04-20T04:13:16;101180.56;;;4.81;100.00
19676;BME280;39539;52.202;9.876;2023-04-20T04:15:41;101189.69;;;4.95;100.00
19676;BME280;39539;52.202;9.876;2023-04-20T04:18:07;101174.69;;;4.87;100.00
19676;BME280;39539;52.202;9.876;2023-04-20T04:20:32;101191.38;;;5.04;100.00
19676;BME280;39539;52.202;9.876;2023-04-20T04:22:57;101178.91;;;4.80;100.00
19676;BME280;39539;52.202;9.876;2023-04-20T04:25:23;101166.06;;;4.77;100.00
19676;BME280;39539;52.202;9.876;2023-04-20T04:27:48;101182.63;;;4.95;100.00
19676;BME280;39539;52.202;9.876;2023-04-20T04:30:15;101188.84;;;4.94;100.00
19676;BME280;39539;52.202;9.876;2023-04-20T04:32:41;101193.84;;;5.06;100.00
19676;BME280;39539;52.202;9.876;2023-04-20T04:35:06;101189.53;;;4.97;100.00
19676;BME280;39539;52.202;9.876;2023-04-20T04:37:32;101189.03;;;4.93;100.00
19676;BME280;39539;52.202;9.876;2023-04-20T04:39:57;101179.91;;;4.79;100.00
19676;BME280;39539;52.202;9.876;2023-04-20T04:42:23;101182.69;;;4.78;100.00
19676;BME280;39539;52.202;9.876;2023-04-20T04:44:48;101176.09;;;4.73;100.00
19676;BME280;39539;52.202;9.876;2023-04-20T04:47:16;101180.56;;;4.81;100.00
19676;BME280;39539;52.202;9.876;2023-04-20T04:49:42;101170.19;;;4.80;100.00
19676;BME280;39539;52.202;9.876;2023-04-20T04:52:07;101181.28;;;4.91;100.00
19676;BME280;39539;52.202;9.876;2023-04-20T04:54:33;101175.97;;;4.83;100.00
19676;BME280;39539;52.202;9.876;2023-04-20T04:56:58;101152.94;;;4.85;100.00
19676;BME280;39539;52.202;9.876;2023-04-20T04:59:24;101180.28;;;4.92;100.00
19676;BME280;39539;52.202;9.876;2023-04-20T05:01:51;101180.75;;;4.88;100.00
19676;BME280;39539;52.202;9.876;2023-04-20T05:04:16;101188.09;;;5.02;100.00
19676;BME280;39539;52.202;9.876;2023-04-20T05:06:42;101185.72;;;4.91;100.00
19676;BME280;39539;52.202;9.876;2023-04-20T05:09:07;101190.47;;;4.87;100.00
19676;BME280;39539;52.202;9.876;2023-04-20T05:11:32;101193.16;;;4.95;100.00
19676;BME280;39539;52.202;9.876;2023-04-20T05:13:58;101184.59;;;4.93;100.00
19676;BME280;39539;52.202;9.876;2023-04-20T05:16:24;101180.09;;;4.86;100.00
19676;BME280;39539;52.202;9.876;2023-04-20T05:18:51;101180.56;;;4.81;100.00
19676;BME280;39539;52.202;9.876;2023-04-20T05:21:16;101192.00;;;4.98;100.00
19676;BME280;39539;52.202;9.876;2023-04-20T05:23:41;101191.91;;;5.08;100.00
19676;BME280;39539;52.202;9.876;2023-04-20T05:26:08;101205.09;;;5.16;100.00
19676;BME280;39539;52.202;9.876;2023-04-20T05:28:33;101206.44;;;5.20;100.00
19676;BME280;39539;52.202;9.876;2023-04-20T05:30:59;101209.47;;;5.33;100.00
19676;BME280;39539;52.202;9.876;2023-04-20T05:33:25;101188.47;;;5.15;100.00
19676;BME280;39539;52.202;9.876;2023-04-20T05:35:54;101201.88;;;5.30;100.00
19676;BME280;39539;52.202;9.876;2023-04-20T05:38:20;101206.19;;;5.39;100.00
19676;BME280;39539;52.202;9.876;2023-04-20T05:40:46;101212.00;;;5.59;100.00
19676;BME280;39539;52.202;9.876;2023-04-20T05:43:11;101210.47;;;5.40;100.00
19676;BME280;39539;52.202;9.876;2023-04-20T05:45:36;101212.78;;;5.35;100.00
19676;BME280;39539;52.202;9.876;2023-04-20T05:48:02;101194.56;;;5.16;100.00
19676;BME280;39539;52.202;9.876;2023-04-20T05:50:27;101208.59;;;5.25;100.00
19676;BME280;39539;52.202;9.876;2023-04-20T05:52:53;101223.81;;;5.39;100.00
19676;BME280;39539;52.202;9.876;2023-04-20T05:55:18;101227.25;;;5.39;100.00
19676;BME280;39539;52.202;9.876;2023-04-20T05:57:44;101221.69;;;5.43;100.00
19676;BME280;39539;52.202;9.876;2023-04-20T06:00:11;101225.16;;;5.51;100.00
19676;BME280;39539;52.202;9.876;2023-04-20T06:02:39;101245.13;;;5.54;100.00
19676;BME280;39539;52.202;9.876;2023-04-20T06:05:06;101223.66;;;5.49;100.00
19676;BME280;39539;52.202;9.876;2023-04-20T06:07:31;101231.75;;;5.47;100.00
19676;BME280;39539;52.202;9.876;2023-04-20T06:09:57;101230.25;;;5.45;100.00
19676;BME280;39539;52.202;9.876;2023-04-20T06:12:24;101230.25;;;5.45;100.00
19676;BME280;39539;52.202;9.876;2023-04-20T06:14:58;101228.00;;;5.58;100.00
19676;BME280;39539;52.202;9.876;2023-04-20T06:17:24;101232.13;;;5.69;100.00
19676;BME280;39539;52.202;9.876;2023-04-20T06:19:49;101222.72;;;5.66;100.00
19676;BME280;39539;52.202;9.876;2023-04-20T06:22:16;101226.94;;;5.93;100.00
19676;BME280;39539;52.202;9.876;2023-04-20T06:24:42;101222.13;;;5.89;100.00
19676;BME280;39539;52.202;9.876;2023-04-20T06:27:08;101229.41;;;5.87;100.00
19676;BME280;39539;52.202;9.876;2023-04-20T06:29:33;101230.44;;;6.18;100.00
19676;BME280;39539;52.202;9.876;2023-04-20T06:31:59;101244.72;;;7.14;100.00
19676;BME280;39539;52.202;9.876;2023-04-20T06:34:25;101228.25;;;10.34;94.49
19676;BME280;39539;52.202;9.876;2023-04-20T06:36:50;101194.13;;;11.01;80.48
19676;BME280;39539;52.202;9.876;2023-04-20T06:39:16;101195.56;;;11.38;76.11
19676;BME280;39539;52.202;9.876;2023-04-20T06:41:42;101154.34;;;10.02;80.00
19676;BME280;39539;52.202;9.876;2023-04-20T06:44:09;101139.63;;;7.93;91.68
19676;BME280;39539;52.202;9.876;2023-04-20T06:46:34;101142.06;;;7.95;92.72
19676;BME280;39539;52.202;9.876;2023-04-20T06:49:00;101160.81;;;9.71;86.44
19676;BME280;39539;52.202;9.876;2023-04-20T06:51:26;101162.88;;;10.68;77.37
19676;BME280;39539;52.202;9.876;2023-04-20T06:53:55;101132.41;;;9.29;82.85
19676;BME280;39539;52.202;9.876;2023-04-20T06:56:22;101140.22;;;8.71;86.00
19676;BME280;39539;52.202;9.876;2023-04-20T06:58:47;101135.84;;;8.10;88.57
19676;BME280;39539;52.202;9.876;2023-04-20T07:01:13;101137.69;;;7.33;95.06
19676;BME280;39539;52.202;9.876;2023-04-20T07:03:38;101120.84;;;7.34;97.23
19676;BME280;39539;52.202;9.876;2023-04-20T07:06:04;101133.03;;;7.43;97.05
19676;BME280;39539;52.202;9.876;2023-04-20T07:08:34;101131.81;;;7.77;95.39
19676;BME280;39539;52.202;9.876;2023-04-20T07:11:00;101140.16;;;7.65;96.09
19676;BME280;39539;52.202;9.876;2023-04-20T07:13:25;101152.16;;;9.26;88.84
19676;BME280;39539;52.202;9.876;2023-04-20T07:15:51;101155.63;;;11.45;75.30
19676;BME280;39539;52.202;9.876;2023-04-20T07:18:17;101150.38;;;11.78;73.84
19676;BME280;39539;52.202;9.876;2023-04-20T07:20:42;101128.66;;;11.00;73.31
19676;BME280;39539;52.202;9.876;2023-04-20T07:23:08;101116.94;;;9.54;77.97
19676;BME280;39539;52.202;9.876;2023-04-20T07:25:33;101109.44;;;8.55;83.89
19676;BME280;39539;52.202;9.876;2023-04-20T07:27:59;101123.91;;;8.29;87.20
19676;BME280;39539;52.202;9.876;2023-04-20T07:30:24;101124.19;;;8.35;86.56
19676;BME280;39539;52.202;9.876;2023-04-20T07:32:50;101137.69;;;9.86;78.73
19676;BME280;39539;52.202;9.876;2023-04-20T07:35:15;101137.31;;;11.97;69.26
19676;BME280;39539;52.202;9.876;2023-04-20T07:37:41;101140.34;;;11.67;69.25
19676;BME280;39539;52.202;9.876;2023-04-20T07:40:07;101124.00;;;10.67;71.05
19676;BME280;39539;52.202;9.876;2023-04-20T07:42:33;101116.38;;;10.29;74.69
19676;BME280;39539;52.202;9.876;2023-04-20T07:45:03;101129.16;;;9.70;78.20
19676;BME280;39539;52.202;9.876;2023-04-20T07:47:29;101122.41;;;9.31;80.24
19676;BME280;39539;52.202;9.876;2023-04-20T07:49:54;101119.84;;;8.86;81.15
19676;BME280;39539;52.202;9.876;2023-04-20T07:52:22;101127.25;;;8.76;81.79
19676;BME280;39539;52.202;9.876;2023-04-20T07:54:47;101121.94;;;8.46;82.66
19676;BME280;39539;52.202;9.876;2023-04-20T07:57:14;101121.75;;;8.63;83.01
19676;BME280;39539;52.202;9.876;2023-04-20T07:59:40;101144.59;;;8.49;83.30
19676;BME280;39539;52.202;9.876;2023-04-20T08:02:06;101136.97;;;8.31;83.92
19676;BME280;39539;52.202;9.876;2023-04-20T08:04:32;101108.06;;;8.06;85.59
19676;BME280;39539;52.202;9.876;2023-04-20T08:06:57;101112.88;;;7.88;88.14
19676;BME280;39539;52.202;9.876;2023-04-20T08:09:24;101114.44;;;7.97;88.99
19676;BME280;39539;52.202;9.876;2023-04-20T08:11:51;101139.22;;;8.19;88.41
19676;BME280;39539;52.202;9.876;2023-04-20T08:14:17;101138.56;;;8.02;88.53
19676;BME280;39539;52.202;9.876;2023-04-20T08:16:44;101110.03;;;7.67;89.26
19676;BME280;39539;52.202;9.876;2023-04-20T08:19:11;101130.72;;;7.86;90.38
19676;BME280;39539;52.202;9.876;2023-04-20T08:21:40;101143.66;;;7.81;89.29
19676;BME280;39539;52.202;9.876;2023-04-20T08:24:08;101131.25;;;7.58;92.10
19676;BME280;39539;52.202;9.876;2023-04-20T08:26:34;101145.47;;;8.03;88.28
19676;BME280;39539;52.202;9.876;2023-04-20T08:29:00;101146.34;;;8.42;85.52
19676;BME280;39539;52.202;9.876;2023-04-20T08:31:27;101137.91;;;8.38;84.01
19676;BME280;39539;52.202;9.876;2023-04-20T08:33:53;101147.28;;;8.79;82.70
19676;BME280;39539;52.202;9.876;2023-04-20T08:36:21;101168.00;;;9.99;77.63
19676;BME280;39539;52.202;9.876;2023-04-20T08:39:13;101160.19;;;10.68;73.18
19676;BME280;39539;52.202;9.876;2023-04-20T08:41:41;101156.69;;;12.84;65.53
19676;BME280;39539;52.202;9.876;2023-04-20T08:44:07;101122.63;;;12.86;62.66
19676;BME280;39539;52.202;9.876;2023-04-20T08:46:33;101122.09;;;10.96;68.84
19676;BME280;39539;52.202;9.876;2023-04-20T08:48:59;101133.16;;;11.67;64.75
19676;BME280;39539;52.202;9.876;2023-04-20T08:51:26;101133.22;;;12.07;63.65
19676;BME280;39539;52.202;9.876;2023-04-20T08:53:54;101121.38;;;11.29;67.07
19676;BME280;39539;52.202;9.876;2023-04-20T08:56:38;101132.78;;;10.11;69.82
19676;BME280;39539;52.202;9.876;2023-04-20T08:59:04;101128.84;;;9.58;73.23
19676;BME280;39539;52.202;9.876;2023-04-20T09:01:31;101134.47;;;9.33;76.47
19676;BME280;39539;52.202;9.876;2023-04-20T09:03:58;101136.66;;;9.44;76.04
19676;BME280;39539;52.202;9.876;2023-04-20T09:06:25;101137.25;;;9.83;74.00
19676;BME280;39539;52.202;9.876;2023-04-20T09:08:50;101139.81;;;9.98;71.51
19676;BME280;39539;52.202;9.876;2023-04-20T09:11:26;101155.81;;;10.54;70.91
19676;BME280;39539;52.202;9.876;2023-04-20T09:14:03;101152.03;;;11.73;66.40
19676;BME280;39539;52.202;9.876;2023-04-20T09:16:34;101152.59;;;11.61;65.70
19676;BME280;39539;52.202;9.876;2023-04-20T09:19:00;101140.38;;;12.33;62.04
19676;BME280;39539;52.202;9.876;2023-04-20T09:21:27;101139.94;;;11.70;63.97
19676;BME280;39539;52.202;9.876;2023-04-20T09:24:01;101126.28;;;10.77;62.18
19676;BME280;39539;52.202;9.876;2023-04-20T09:26:34;101137.09;;;10.34;65.77
19676;BME280;39539;52.202;9.876;2023-04-20T09:29:03;101139.31;;;9.87;67.35
19676;BME280;39539;52.202;9.876;2023-04-20T09:31:28;101133.75;;;9.61;69.41
19676;BME280;39539;52.202;9.876;2023-04-20T09:34:03;101128.19;;;9.34;71.58
19676;BME280;39539;52.202;9.876;2023-04-20T09:36:45;101137.44;;;9.60;72.23
19676;BME280;39539;52.202;9.876;2023-04-20T09:39:13;101129.59;;;9.52;71.04
19676;BME280;39539;52.202;9.876;2023-04-20T09:41:40;101138.78;;;9.34;69.79
19676;BME280;39539;52.202;9.876;2023-04-20T09:44:07;101136.47;;;9.46;70.26
19676;BME280;39539;52.202;9.876;2023-04-20T09:46:34;101145.25;;;9.68;69.92
19676;BME280;39539;52.202;9.876;2023-04-20T09:49:03;101141.78;;;9.89;71.02
19676;BME280;39539;52.202;9.876;2023-04-20T09:51:34;101140.03;;;10.24;69.40
19676;BME280;39539;52.202;9.876;2023-04-20T09:54:02;101133.94;;;10.02;69.80
19676;BME280;39539;52.202;9.876;2023-04-20T09:56:30;101139.06;;;10.04;68.70
19676;BME280;39539;52.202;9.876;2023-04-20T09:58:56;101144.31;;;9.97;69.74
19676;BME280;39539;52.202;9.876;2023-04-20T10:01:22;101130.34;;;9.46;70.96
19676;BME280;39539;52.202;9.876;2023-04-20T10:03:51;101129.03;;;9.05;72.36
19676;BME280;39539;52.202;9.876;2023-04-20T10:08:49;101144.91;;;10.21;69.32
19676;BME280;39539;52.202;9.876;2023-04-20T10:11:36;101139.78;;;10.41;67.51
19676;BME280;39539;52.202;9.876;2023-04-20T10:14:16;101140.97;;;10.38;67.80
19676;BME280;39539;52.202;9.876;2023-04-20T10:16:43;101133.47;;;10.20;67.91
19676;BME280;39539;52.202;9.876;2023-04-20T10:19:09;101124.28;;;9.95;68.63
19676;BME280;39539;52.202;9.876;2023-04-20T10:21:47;101136.72;;;9.73;70.57
19676;BME280;39539;52.202;9.876;2023-04-20T10:24:13;101140.88;;;9.82;71.97
19676;BME280;39539;52.202;9.876;2023-04-20T10:26:41;101147.78;;;9.76;71.05
19676;BME280;39539;52.202;9.876;2023-04-20T10:29:06;101150.50;;;10.04;70.63
19676;BME280;39539;52.202;9.876;2023-04-20T10:31:38;101140.97;;;9.88;69.89
19676;BME280;39539;52.202;9.876;2023-04-20T10:34:05;101134.28;;;10.21;68.82
19676;BME280;39539;52.202;9.876;2023-04-20T10:36:35;101128.94;;;10.14;67.40
19676;BME280;39539;52.202;9.876;2023-04-20T10:39:14;101124.16;;;9.81;69.44
19676;BME280;39539;52.202;9.876;2023-04-20T10:41:54;101126.66;;;9.47;69.79
19676;BME280;39539;52.202;9.876;2023-04-20T10:44:22;101119.59;;;9.32;71.41
19676;BME280;39539;52.202;9.876;2023-04-20T10:46:51;101128.31;;;9.48;72.55
19676;BME280;39539;52.202;9.876;2023-04-20T10:49:18;101133.00;;;9.67;71.83
19676;BME280;39539;52.202;9.876;2023-04-20T10:51:48;101139.22;;;9.74;71.74
19676;BME280;39539;52.202;9.876;2023-04-20T10:54:14;101134.56;;;10.04;70.02
19676;BME280;39539;52.202;9.876;2023-04-20T10:59:07;101137.34;;;10.46;65.01
19676;BME280;39539;52.202;9.876;2023-04-20T11:01:33;101132.53;;;10.06;66.96
19676;BME280;39539;52.202;9.876;2023-04-20T11:03:58;101132.75;;;10.05;67.75
19676;BME280;39539;52.202;9.876;2023-04-20T11:06:24;101131.94;;;10.32;67.03
19676;BME280;39539;52.202;9.876;2023-04-20T11:08:50;101127.53;;;10.46;64.29
19676;BME280;39539;52.202;9.876;2023-04-20T11:11:20;101122.25;;;9.97;66.16
19676;BME280;39539;52.202;9.876;2023-04-20T11:13:46;101136.13;;;9.99;68.52
19676;BME280;39539;52.202;9.876;2023-04-20T11:16:14;101133.03;;;10.17;67.13
19676;BME280;39539;52.202;9.876;2023-04-20T11:18:51;101137.31;;;10.18;66.79
19676;BME280;39539;52.202;9.876;2023-04-20T11:21:19;101123.31;;;10.02;67.75
19676;BME280;39539;52.202;9.876;2023-04-20T11:23:45;101125.03;;;9.88;67.26
19676;BME280;39539;52.202;9.876;2023-04-20T11:26:11;101111.81;;;9.74;67.75
19676;BME280;39539;52.202;9.876;2023-04-20T11:28:36;101115.44;;;9.66;69.42
19676;BME280;39539;52.202;9.876;2023-04-20T11:31:03;101123.00;;;9.90;67.31
19676;BME280;39539;52.202;9.876;2023-04-20T11:33:31;101111.00;;;9.95;67.99
19676;BME280;39539;52.202;9.876;2023-04-20T11:35:59;101114.03;;;9.92;66.62
19676;BME280;39539;52.202;9.876;2023-04-20T11:38:30;101113.47;;;9.75;67.04
19676;BME280;39539;52.202;9.876;2023-04-20T11:40:56;101098.50;;;9.88;68.20
19676;BME280;39539;52.202;9.876;2023-04-20T11:43:24;101107.03;;;10.12;67.58
19676;BME280;39539;52.202;9.876;2023-04-20T11:45:50;101103.63;;;10.46;66.76
19676;BME280;39539;52.202;9.876;2023-04-20T11:48:16;101096.97;;;11.05;63.32
19676;BME280;39539;52.202;9.876;2023-04-20T11:50:43;101111.53;;;11.22;61.54
19676;BME280;39539;52.202;9.876;2023-04-20T11:53:08;101081.44;;;11.15;60.94
19676;BME280;39539;52.202;9.876;2023-04-20T11:55:38;101081.13;;;11.58;61.28
19676;BME280;39539;52.202;9.876;2023-04-20T11:58:03;101082.59;;;12.07;60.34
19676;BME280;39539;52.202;9.876;2023-04-20T12:00:29;101095.66;;;12.49;58.30
19676;BME280;39539;52.202;9.876;2023-04-20T12:02:55;101091.41;;;12.15;58.74
19676;BME280;39539;52.202;9.876;2023-04-20T12:05:20;101099.34;;;11.68;59.30
19676;BME280;39539;52.202;9.876;2023-04-20T12:07:46;101103.66;;;11.62;59.89
19676;BME280;39539;52.202;9.876;2023-04-20T12:10:12;101097.91;;;11.52;60.98
19676;BME280;39539;52.202;9.876;2023-04-20T12:12:39;101078.25;;;11.60;61.81
19676;BME280;39539;52.202;9.876;2023-04-20T12:15:07;101078.88;;;11.55;62.52
19676;BME280;39539;52.202;9.876;2023-04-20T12:17:34;101082.97;;;11.64;60.78
19676;BME280;39539;52.202;9.876;2023-04-20T12:20:02;101078.38;;;11.18;60.34
19676;BME280;39539;52.202;9.876;2023-04-20T12:22:33;101072.88;;;10.65;62.22
19676;BME280;39539;52.202;9.876;2023-04-20T12:24:58;101074.78;;;10.85;63.20
19676;BME280;39539;52.202;9.876;2023-04-20T12:27:24;101065.78;;;10.79;61.50
19676;BME280;39539;52.202;9.876;2023-04-20T12:29:50;101079.94;;;10.93;61.58
19676;BME280;39539;52.202;9.876;2023-04-20T12:32:16;101066.66;;;10.93;61.51
19676;BME280;39539;52.202;9.876;2023-04-20T12:34:41;101058.34;;;11.22;61.94
19676;BME280;39539;52.202;9.876;2023-04-20T12:37:07;101072.69;;;11.35;60.79
19676;BME280;39539;52.202;9.876;2023-04-20T12:39:32;101062.69;;;11.70;60.60
19676;BME280;39539;52.202;9.876;2023-04-20T12:41:58;101069.25;;;12.14;60.22
19676;BME280;39539;52.202;9.876;2023-04-20T12:44:25;101051.22;;;11.83;56.68
19676;BME280;39539;52.202;9.876;2023-04-20T12:46:50;101043.66;;;11.66;58.57
19676;BME280;39539;52.202;9.876;2023-04-20T12:49:15;101039.75;;;11.76;58.48
19676;BME280;39539;52.202;9.876;2023-04-20T12:51:41;101047.38;;;11.92;58.66
19676;BME280;39539;52.202;9.876;2023-04-20T12:54:06;101050.19;;;12.10;58.55